Time;durP1;ratioP1;P1;durP2;ratioP2;P2;SDS_P1;SDS_P2;PMS_P1;PMS_P2;Temp;Humidity;BMP_temperature;BMP_pressure;BME280_temperature;BME280_humidity;BME280_pressure;Samples;Min_cycle;Max_cycle;Signal;HPM_P1;HPM_P2
2022/09/21 00:01:18;;;;;;;10.67;4.43;;;8.80;99.90;;;;;;5053252;28;20453;-75
2022/09/21 00:03:45;;;;;;;4.63;4.20;;;8.90;99.90;;;;;;5052827;28;20473;-75
2022/09/21 00:06:15;;;;;;;5.73;3.67;;;8.80;99.90;;;;;;5053189;28;20484;-75
2022/09/21 00:08:43;;;;;;;5.57;3.60;;;8.70;99.90;;;;;;5053617;28;20945;-75
2022/09/21 00:11:12;;;;;;;8.13;4.17;;;8.70;99.90;;;;;;5053548;28;20453;-75
2022/09/21 00:13:41;;;;;;;6.90;3.83;;;8.70;99.90;;;;;;5051644;28;20477;-75
2022/09/21 00:16:08;;;;;;;6.47;4.10;;;8.70;99.90;;;;;;5052905;28;20484;-75
2022/09/21 00:18:36;;;;;;;8.43;4.50;;;8.60;99.90;;;;;;5053166;28;20460;-75
2022/09/21 00:21:07;;;;;;;9.53;4.50;;;8.60;99.90;;;;;;5047043;28;20476;-75
2022/09/21 00:23:36;;;;;;;5.10;4.60;;;8.60;99.90;;;;;;5052556;28;20476;-75
2022/09/21 00:26:08;;;;;;;7.07;4.50;;;8.50;99.90;;;;;;5050474;28;20481;-75
2022/09/21 00:28:35;;;;;;;5.53;4.20;;;8.50;99.90;;;;;;5052820;28;20456;-75
2022/09/21 00:31:03;;;;;;;7.10;4.67;;;8.50;99.90;;;;;;5046659;28;20483;-75
2022/09/21 00:33:29;;;;;;;7.97;5.07;;;8.40;99.90;;;;;;5052486;28;20473;-75
2022/09/21 00:35:56;;;;;;;16.80;6.30;;;8.40;99.90;;;;;;5052851;28;20458;-75
2022/09/21 00:38:23;;;;;;;10.57;5.90;;;8.40;99.90;;;;;;5053005;28;20823;-75
2022/09/21 00:40:51;;;;;;;7.83;5.67;;;8.40;99.90;;;;;;5052438;28;20467;-75
2022/09/21 00:43:18;;;;;;;10.70;6.17;;;8.30;99.90;;;;;;5052240;28;20477;-75
2022/09/21 00:45:48;;;;;;;6.87;5.90;;;8.30;99.90;;;;;;5052226;28;20446;-75
2022/09/21 00:48:15;;;;;;;6.20;5.60;;;8.30;99.90;;;;;;5052588;28;20458;-75
2022/09/21 00:50:46;;;;;;;8.80;5.30;;;8.20;99.90;;;;;;5051538;28;20540;-75
2022/09/21 00:53:14;;;;;;;9.93;5.70;;;8.20;99.90;;;;;;5052317;28;20484;-75
2022/09/21 00:55:46;;;;;;;6.10;5.50;;;8.20;99.90;;;;;;5051588;28;20455;-75
2022/09/21 00:58:19;;;;;;;9.47;4.87;;;8.20;99.90;;;;;;5052096;28;20489;-75
2022/09/21 01:00:46;;;;;;;9.00;5.83;;;8.10;99.90;;;;;;5051829;28;21247;-75
2022/09/21 01:03:13;;;;;;;6.10;5.20;;;8.10;99.90;;;;;;5052197;28;20476;-75
2022/09/21 01:05:39;;;;;;;5.63;5.13;;;8.00;99.90;;;;;;5051774;28;20468;-75
2022/09/21 01:08:11;;;;;;;7.63;5.10;;;8.00;99.90;;;;;;5052380;28;20442;-75
2022/09/21 01:10:51;;;;;;;6.00;5.40;;;7.90;99.90;;;;;;5051921;28;20448;-75
2022/09/21 01:13:31;;;;;;;7.47;5.10;;;7.90;99.90;;;;;;5051956;28;20464;-75
2022/09/21 01:16:05;;;;;;;8.30;5.03;;;7.90;99.90;;;;;;5051239;28;20500;-75
2022/09/21 01:18:38;;;;;;;8.30;5.43;;;7.90;99.90;;;;;;5051752;28;20834;-75
2022/09/21 01:21:18;;;;;;;8.93;6.00;;;7.90;99.90;;;;;;5045565;28;20456;-75
2022/09/21 01:24:18;;;;;;;8.87;6.47;;;7.90;99.90;;;;;;5051433;28;20852;-75
2022/09/21 01:27:07;;;;;;;8.03;7.17;;;7.80;99.90;;;;;;5050597;28;20490;-75
2022/09/21 01:29:40;;;;;;;11.63;6.70;;;7.70;99.90;;;;;;5052010;28;20460;-75
2022/09/21 01:32:12;;;;;;;8.20;6.87;;;7.70;99.90;;;;;;5048928;28;20449;-75
2022/09/21 01:34:47;;;;;;;8.83;6.43;;;7.70;99.90;;;;;;5051061;28;20476;-75
2022/09/21 01:37:18;;;;;;;8.43;6.50;;;7.70;99.90;;;;;;5051569;28;20448;-75
2022/09/21 01:39:48;;;;;;;8.63;6.73;;;7.60;99.90;;;;;;5051107;28;20939;-75
2022/09/21 01:42:16;;;;;;;9.43;6.67;;;7.70;99.90;;;;;;5051643;28;20452;-75
2022/09/21 01:44:46;;;;;;;12.50;6.60;;;7.70;99.90;;;;;;5051035;28;20472;-75
2022/09/21 01:47:14;;;;;;;12.40;6.27;;;7.60;99.90;;;;;;5050955;28;20566;-75
2022/09/21 01:49:46;;;;;;;8.83;6.57;;;7.60;99.90;;;;;;5051113;28;20507;-75
2022/09/21 01:52:17;;;;;;;7.07;5.70;;;7.60;99.90;;;;;;5050588;28;20477;-75
2022/09/21 01:54:49;;;;;;;6.43;5.30;;;7.60;99.90;;;;;;5050959;28;20465;-75
2022/09/21 01:57:23;;;;;;;5.17;4.67;;;7.60;99.90;;;;;;5051322;28;20503;-75
2022/09/21 01:59:53;;;;;;;8.97;5.23;;;7.50;99.90;;;;;;5051071;28;20945;-75
2022/09/21 02:02:24;;;;;;;7.60;5.07;;;7.50;99.90;;;;;;5051058;28;20875;-75
2022/09/21 02:04:51;;;;;;;9.53;4.70;;;7.50;99.90;;;;;;5050953;28;20476;-75
2022/09/21 02:07:18;;;;;;;6.80;4.87;;;7.50;99.90;;;;;;5050744;28;20490;-75
2022/09/21 02:09:46;;;;;;;5.13;3.93;;;7.40;99.90;;;;;;5051174;28;20445;-75
2022/09/21 02:12:13;;;;;;;4.53;4.13;;;7.40;99.90;;;;;;5051008;28;20794;-75
2022/09/21 02:14:40;;;;;;;4.57;4.17;;;7.30;99.90;;;;;;5050602;28;20514;-75
2022/09/21 02:17:25;;;;;;;5.50;4.80;;;7.30;99.90;;;;;;5050410;28;20453;-75
2022/09/21 02:20:01;;;;;;;11.23;4.97;;;7.20;99.90;;;;;;5050445;28;20453;-75
2022/09/21 02:22:33;;;;;;;8.80;5.00;;;7.10;99.90;;;;;;5051263;28;20886;-75
2022/09/21 02:25:07;;;;;;;13.43;4.80;;;7.00;99.90;;;;;;5049762;28;20919;-75
2022/09/21 02:27:40;;;;;;;7.10;5.10;;;6.90;99.90;;;;;;5050085;28;20530;-75
2022/09/21 02:30:09;;;;;;;6.17;4.80;;;6.80;99.90;;;;;;5050585;28;20473;-74
2022/09/21 02:32:48;;;;;;;6.73;5.47;;;6.80;99.90;;;;;;5049505;28;20973;-75
2022/09/21 02:35:25;;;;;;;7.27;4.97;;;6.80;99.90;;;;;;5049588;28;20457;-75
2022/09/21 02:37:57;;;;;;;6.27;4.40;;;6.70;99.90;;;;;;5049991;28;20992;-76
2022/09/21 02:40:29;;;;;;;7.57;4.27;;;6.70;99.90;;;;;;5051174;28;20446;-75
2022/09/21 02:42:59;;;;;;;5.60;4.30;;;6.60;99.90;;;;;;5050289;28;20946;-75
2022/09/21 02:45:30;;;;;;;7.77;4.17;;;6.60;99.90;;;;;;5050189;28;20449;-75
2022/09/21 02:48:03;;;;;;;5.07;4.23;;;6.60;99.90;;;;;;5049868;28;20542;-75
2022/09/21 02:50:35;;;;;;;13.80;4.97;;;6.50;99.90;;;;;;5050725;28;20506;-75
2022/09/21 02:53:05;;;;;;;6.00;4.60;;;6.50;99.90;;;;;;5049580;28;20456;-75
2022/09/21 02:55:33;;;;;;;6.60;4.73;;;6.40;99.90;;;;;;5047291;28;20451;-75
2022/09/21 02:58:04;;;;;;;7.50;4.53;;;6.40;99.90;;;;;;5049474;28;20451;-75
2022/09/21 03:00:31;;;;;;;4.93;4.43;;;6.40;99.90;;;;;;5050595;28;20473;-74
2022/09/21 03:02:59;;;;;;;16.43;5.43;;;6.40;99.90;;;;;;5050528;28;20947;-75
2022/09/21 03:05:27;;;;;;;7.63;4.87;;;6.40;99.90;;;;;;5050525;28;20459;-75
2022/09/21 03:07:53;;;;;;;6.23;5.33;;;6.40;99.90;;;;;;5049242;28;20484;-75
2022/09/21 03:10:20;;;;;;;6.30;4.57;;;6.30;99.90;;;;;;5050353;28;20448;-75
2022/09/21 03:12:47;;;;;;;7.00;4.50;;;6.30;99.90;;;;;;5050506;28;20474;-75
2022/09/21 03:15:17;;;;;;;5.67;4.83;;;6.30;99.90;;;;;;5050032;28;20471;-75
2022/09/21 03:17:43;;;;;;;10.70;5.50;;;6.30;99.90;;;;;;5046851;28;20452;-75
2022/09/21 03:20:11;;;;;;;5.40;4.87;;;6.30;99.90;;;;;;5050193;28;20508;-74
2022/09/21 03:22:38;;;;;;;5.97;4.60;;;6.30;99.90;;;;;;5050007;28;20456;-75
2022/09/21 03:25:06;;;;;;;6.13;4.37;;;6.30;99.90;;;;;;5050171;28;20538;-75
2022/09/21 03:27:33;;;;;;;4.67;4.13;;;6.30;99.90;;;;;;5050125;28;20480;-74
2022/09/21 03:29:59;;;;;;;7.60;4.90;;;6.30;99.90;;;;;;5050080;28;20457;-74
2022/09/21 03:32:26;;;;;;;5.00;4.40;;;6.30;99.90;;;;;;5049870;28;20459;-75
2022/09/21 03:34:53;;;;;;;5.20;4.30;;;6.30;99.90;;;;;;5049603;28;20524;-74
2022/09/21 03:37:21;;;;;;;9.30;4.80;;;6.30;99.90;;;;;;5049460;28;20953;-76
2022/09/21 03:39:47;;;;;;;5.30;4.00;;;6.30;99.90;;;;;;5050117;28;20460;-75
2022/09/21 03:42:14;;;;;;;6.33;4.20;;;6.30;99.90;;;;;;5049017;28;20513;-75
2022/09/21 03:44:41;;;;;;;4.80;4.07;;;6.30;99.90;;;;;;5049538;28;20483;-75
2022/09/21 03:47:08;;;;;;;5.67;4.07;;;6.30;99.90;;;;;;5049316;28;20488;-75
2022/09/21 03:49:35;;;;;;;4.37;3.97;;;6.30;99.90;;;;;;5051295;28;20515;-75
2022/09/21 03:52:02;;;;;;;5.77;4.20;;;6.30;99.90;;;;;;5053364;28;20449;-75
2022/09/21 03:54:30;;;;;;;6.40;4.80;;;6.30;99.90;;;;;;5053674;28;20468;-75
2022/09/21 03:56:57;;;;;;;4.87;4.47;;;6.30;99.90;;;;;;5052439;28;20466;-75
2022/09/21 03:59:23;;;;;;;5.20;4.70;;;6.30;99.90;;;;;;5053413;28;20453;-75
2022/09/21 04:01:50;;;;;;;4.50;4.10;;;6.20;99.90;;;;;;5053025;28;20448;-75
2022/09/21 04:04:17;;;;;;;4.97;4.47;;;6.20;99.90;;;;;;5053446;28;20476;-75
2022/09/21 04:06:45;;;;;;;5.30;4.53;;;6.10;99.90;;;;;;5052732;28;20453;-75
2022/09/21 04:09:11;;;;;;;4.60;4.20;;;6.10;99.90;;;;;;5052226;28;20475;-75
2022/09/21 04:11:39;;;;;;;6.30;4.00;;;6.10;99.90;;;;;;5052347;28;20452;-75
2022/09/21 04:14:06;;;;;;;5.90;4.60;;;6.10;99.90;;;;;;5051990;28;20472;-75
2022/09/21 04:16:33;;;;;;;6.37;5.10;;;6.10;99.90;;;;;;5052910;28;20489;-76
2022/09/21 04:19:00;;;;;;;6.80;4.40;;;6.10;99.90;;;;;;5052944;28;20455;-76
2022/09/21 04:21:27;;;;;;;11.23;4.90;;;6.10;99.90;;;;;;5053170;28;20452;-75
2022/09/21 04:23:53;;;;;;;7.53;4.57;;;6.10;99.90;;;;;;5052531;28;20479;-75
2022/09/21 04:26:22;;;;;;;7.40;5.00;;;6.10;99.90;;;;;;5052925;28;21018;-75
2022/09/21 04:28:51;;;;;;;7.43;4.43;;;6.00;99.90;;;;;;5052526;28;20485;-75
2022/09/21 04:31:17;;;;;;;5.03;4.53;;;6.00;99.90;;;;;;5046524;28;20456;-76
2022/09/21 04:33:47;;;;;;;15.60;6.23;;;6.00;99.90;;;;;;5052232;28;20472;-75
2022/09/21 04:36:13;;;;;;;5.23;4.23;;;6.00;99.90;;;;;;5052674;28;20451;-76
2022/09/21 04:38:40;;;;;;;6.50;4.90;;;6.00;99.90;;;;;;5052365;28;20454;-75
2022/09/21 04:41:07;;;;;;;4.40;4.03;;;6.00;99.90;;;;;;5052800;28;20464;-76
2022/09/21 04:43:33;;;;;;;8.57;4.67;;;6.00;99.90;;;;;;5052648;28;21014;-76
2022/09/21 04:46:06;;;;;;;5.23;4.20;;;5.90;99.90;;;;;;5042753;28;20468;-75
2022/09/21 04:48:33;;;;;;;4.13;3.73;;;5.90;99.90;;;;;;5046810;28;20519;-75
2022/09/21 04:51:00;;;;;;;4.30;3.90;;;5.90;99.90;;;;;;5051742;28;20484;-76
2022/09/21 04:53:27;;;;;;;8.83;3.93;;;5.80;99.90;;;;;;5052761;28;20494;-75
2022/09/21 04:55:54;;;;;;;4.60;4.00;;;5.80;99.90;;;;;;5052367;28;20459;-75
2022/09/21 04:58:20;;;;;;;5.37;4.37;;;5.80;99.90;;;;;;5052496;28;21050;-76
2022/09/21 05:00:49;;;;;;;5.33;4.20;;;5.80;99.90;;;;;;5051337;28;20456;-76
2022/09/21 05:03:18;;;;;;;5.53;4.50;;;5.80;99.90;;;;;;5052664;28;20473;-76
2022/09/21 05:05:47;;;;;;;5.73;4.27;;;5.80;99.90;;;;;;5051411;28;20458;-75
2022/09/21 05:08:14;;;;;;;4.80;4.40;;;5.80;99.90;;;;;;5051759;28;20506;-76
2022/09/21 05:10:39;;;;;;;4.97;4.57;;;5.80;99.90;;;;;;5052443;28;20501;-76
2022/09/21 05:13:06;;;;;;;7.37;4.10;;;5.70;99.90;;;;;;5052472;28;20448;-76
2022/09/21 05:15:33;;;;;;;11.33;4.80;;;5.80;99.90;;;;;;5051543;28;20209;-76
2022/09/21 05:17:59;;;;;;;8.53;4.57;;;5.80;99.90;;;;;;5052464;28;20453;-76
2022/09/21 05:20:27;;;;;;;12.00;4.77;;;5.80;99.90;;;;;;5052541;28;20451;-76
2022/09/21 05:22:54;;;;;;;7.53;4.40;;;5.80;99.90;;;;;;5052477;28;20461;-75
2022/09/21 05:25:21;;;;;;;7.30;5.03;;;5.80;99.90;;;;;;5052534;28;20453;-76
2022/09/21 05:27:47;;;;;;;5.13;4.30;;;5.80;99.90;;;;;;5053130;28;20510;-75
2022/09/21 05:30:15;;;;;;;7.87;5.13;;;5.80;99.90;;;;;;5052632;28;20466;-75
2022/09/21 05:32:47;;;;;;;5.40;4.63;;;5.80;99.90;;;;;;5052886;28;20451;-76
2022/09/21 05:35:24;;;;;;;9.80;5.10;;;5.70;99.90;;;;;;5052422;28;20474;-75
2022/09/21 05:37:57;;;;;;;8.37;5.50;;;5.80;99.90;;;;;;5052699;28;20495;-76
2022/09/21 05:40:24;;;;;;;6.50;4.33;;;5.90;99.90;;;;;;5052146;28;20453;-76
2022/09/21 05:42:51;;;;;;;4.97;3.80;;;6.00;99.90;;;;;;5053088;28;20454;-75
2022/09/21 05:45:19;;;;;;;7.33;4.40;;;6.00;99.90;;;;;;5052087;28;20939;-75
2022/09/21 05:47:58;;;;;;;4.00;3.70;;;6.00;99.90;;;;;;5052289;28;20498;-76
2022/09/21 05:50:37;;;;;;;11.40;4.50;;;5.90;99.90;;;;;;5052331;28;20542;-76
2022/09/21 05:53:26;;;;;;;7.27;4.60;;;6.20;99.90;;;;;;5052006;28;20454;-76
2022/09/21 05:55:57;;;;;;;4.53;4.00;;;6.50;99.90;;;;;;5039444;28;20498;-76
2022/09/21 05:58:34;;;;;;;4.60;4.20;;;6.90;99.90;;;;;;5052275;28;20477;-76
2022/09/21 06:01:20;;;;;;;7.57;4.00;;;7.10;99.90;;;;;;5052056;28;21009;-75
2022/09/21 06:03:49;;;;;;;10.77;4.50;;;7.50;99.90;;;;;;5052265;28;20525;-75
2022/09/21 06:06:16;;;;;;;6.63;4.30;;;8.00;99.90;;;;;;5051942;28;20970;-76
2022/09/21 06:08:44;;;;;;;8.17;4.30;;;8.20;99.90;;;;;;5052028;28;20488;-76
2022/09/21 06:11:11;;;;;;;6.10;4.50;;;8.50;99.90;;;;;;5051894;28;20449;-76
2022/09/21 06:13:39;;;;;;;5.07;3.73;;;8.90;99.90;;;;;;5051638;28;20842;-76
2022/09/21 06:16:07;;;;;;;6.30;4.13;;;9.30;99.90;;;;;;5052180;28;20494;-75
2022/09/21 06:18:37;;;;;;;3.90;3.40;;;9.70;99.90;;;;;;5052033;28;20457;-76
2022/09/21 06:21:04;;;;;;;3.57;3.37;;;10.10;99.90;;;;;;5051833;28;20457;-76
2022/09/21 06:23:30;;;;;;;6.13;4.27;;;10.40;99.90;;;;;;5051801;28;20473;-76
2022/09/21 06:25:58;;;;;;;6.07;3.80;;;10.80;99.90;;;;;;5051466;28;20453;-76
2022/09/21 06:28:26;;;;;;;6.87;3.90;;;11.10;99.90;;;;;;5051606;28;20485;-75
2022/09/21 06:30:54;;;;;;;7.33;3.93;;;11.50;99.90;;;;;;5051532;28;20934;-76
2022/09/21 06:33:22;;;;;;;6.07;4.27;;;11.60;99.90;;;;;;5051719;28;20502;-76
2022/09/21 06:35:53;;;;;;;4.60;3.80;;;12.00;99.90;;;;;;5051654;28;20985;-76
2022/09/21 06:38:20;;;;;;;6.37;3.97;;;12.30;99.90;;;;;;5051729;28;20438;-76
2022/09/21 06:40:47;;;;;;;5.80;3.67;;;12.80;99.90;;;;;;5051524;28;20477;-76
2022/09/21 06:43:15;;;;;;;8.90;4.17;;;13.10;99.90;;;;;;5051960;28;20469;-76
2022/09/21 06:45:42;;;;;;;5.27;4.00;;;13.20;99.90;;;;;;5051595;28;20773;-76
2022/09/21 06:48:09;;;;;;;6.23;4.30;;;13.30;99.90;;;;;;5051628;28;20484;-76
2022/09/21 06:50:36;;;;;;;4.10;3.60;;;13.60;99.90;;;;;;5051413;28;20640;-76
2022/09/21 06:53:04;;;;;;;15.07;4.10;;;13.90;99.90;;;;;;5051467;28;20467;-76
2022/09/21 06:55:31;;;;;;;4.40;3.20;;;14.10;99.90;;;;;;5051530;28;20499;-76
2022/09/21 06:58:01;;;;;;;5.97;3.63;;;14.30;99.90;;;;;;5051375;28;20455;-76
2022/09/21 07:00:30;;;;;;;3.93;3.50;;;14.70;99.90;;;;;;5051312;28;20965;-76
2022/09/21 07:02:56;;;;;;;8.77;4.10;;;14.90;99.90;;;;;;5051453;28;20449;-76
2022/09/21 07:05:23;;;;;;;4.53;3.50;;;15.10;99.90;;;;;;5051150;28;20520;-76
2022/09/21 07:07:50;;;;;;;3.97;3.67;;;15.30;99.90;;;;;;5051172;28;20453;-76
2022/09/21 07:10:17;;;;;;;6.93;3.60;;;15.50;99.90;;;;;;5051184;28;20449;-76
2022/09/21 07:12:44;;;;;;;4.80;4.00;;;15.40;99.90;;;;;;5051493;28;20478;-77
2022/09/21 07:15:12;;;;;;;4.63;3.77;;;15.40;99.90;;;;;;5051140;28;20854;-76
2022/09/21 07:17:41;;;;;;;3.73;3.37;;;15.30;99.90;;;;;;5051316;28;20466;-76
2022/09/21 07:20:09;;;;;;;5.50;3.73;;;15.30;99.90;;;;;;5050952;28;20937;-76
2022/09/21 07:22:36;;;;;;;4.00;3.60;;;15.20;99.90;;;;;;5051029;28;20464;-76
2022/09/21 07:25:03;;;;;;;5.50;3.43;;;15.30;99.90;;;;;;5053302;28;20484;-76
2022/09/21 07:27:30;;;;;;;6.23;3.10;;;15.20;99.90;;;;;;5055122;28;20455;-77
2022/09/21 07:29:57;;;;;;;4.90;3.20;;;15.30;99.90;;;;;;5054847;28;20489;-76
2022/09/21 07:32:25;;;;;;;5.97;3.30;;;15.30;99.90;;;;;;5054909;28;20966;-76
2022/09/21 07:34:55;;;;;;;10.27;3.70;;;15.30;99.90;;;;;;5054806;28;20499;-76
2022/09/21 07:37:23;;;;;;;6.17;3.70;;;15.30;99.90;;;;;;5054512;28;20460;-76
2022/09/21 07:39:50;;;;;;;5.30;3.27;;;15.10;99.90;;;;;;5055184;28;20452;-76
2022/09/21 07:42:19;;;;;;;5.80;3.30;;;15.20;99.90;;;;;;5054944;28;20459;-77
2022/09/21 07:44:46;;;;;;;10.37;3.70;;;15.30;99.90;;;;;;5054737;28;20464;-77
2022/09/21 07:47:13;;;;;;;7.10;3.90;;;15.30;99.90;;;;;;5054248;28;21019;-77
2022/09/21 07:49:41;;;;;;;7.47;3.83;;;15.40;99.90;;;;;;5054380;28;20511;-77
2022/09/21 07:52:09;;;;;;;5.73;3.07;;;15.50;99.90;;;;;;5054602;28;20725;-77
2022/09/21 07:54:36;;;;;;;6.63;3.53;;;15.50;99.90;;;;;;5054468;28;20469;-77
2022/09/21 07:59:47;;;;;;;10.87;3.60;;;15.80;99.90;;;;;;5054899;28;20467;-76
2022/09/21 08:02:13;;;;;;;4.37;3.67;;;15.80;99.90;;;;;;5054368;28;20445;-77
2022/09/21 08:04:40;;;;;;;8.70;4.30;;;15.90;99.90;;;;;;5054658;28;20469;-76
2022/09/21 08:07:08;;;;;;;8.07;4.23;;;16.20;99.90;;;;;;5054251;28;20456;-77
2022/09/21 08:09:35;;;;;;;8.90;3.93;;;16.50;99.90;;;;;;5054458;28;20489;-77
2022/09/21 08:12:02;;;;;;;3.83;3.50;;;16.60;99.90;;;;;;5054168;28;20999;-76
2022/09/21 08:14:29;;;;;;;9.60;3.90;;;16.80;99.90;;;;;;5054088;28;20480;-77
2022/09/21 08:16:55;;;;;;;9.20;4.50;;;17.20;99.90;;;;;;5053817;28;20449;-77
2022/09/21 08:19:24;;;;;;;5.17;3.57;;;17.20;99.90;;;;;;5054063;28;20991;-77
2022/09/21 08:21:52;;;;;;;6.93;3.70;;;17.10;99.90;;;;;;5054079;28;20846;-77
2022/09/21 08:24:20;;;;;;;4.90;4.27;;;17.20;99.90;;;;;;5053871;28;21054;-77
2022/09/21 08:26:47;;;;;;;6.67;4.10;;;17.10;99.90;;;;;;5053644;28;20450;-77
2022/09/21 08:29:14;;;;;;;5.60;4.30;;;17.40;99.90;;;;;;5053651;28;20482;-77
2022/09/21 08:31:42;;;;;;;6.37;4.20;;;17.30;99.90;;;;;;5053987;28;20453;-77
2022/09/21 08:34:08;;;;;;;4.50;4.10;;;17.20;99.90;;;;;;5054213;28;20465;-77
2022/09/21 08:36:35;;;;;;;4.87;4.40;;;17.20;99.90;;;;;;5053496;28;20415;-76
2022/09/21 08:39:02;;;;;;;5.53;4.40;;;16.90;99.90;;;;;;5053935;28;20449;-76
2022/09/21 08:41:57;;;;;;;7.90;4.60;;;17.20;99.90;;;;;;5054126;28;20426;-77
2022/09/21 08:44:27;;;;;;;6.43;4.40;;;17.40;99.90;;;;;;5053806;28;20465;-77
2022/09/21 08:47:02;;;;;;;4.90;4.37;;;17.70;99.90;;;;;;5053253;28;20980;-77
2022/09/21 08:49:29;;;;;;;7.33;4.73;;;18.00;99.90;;;;;;5053491;28;20497;-77
2022/09/21 08:52:00;;;;;;;9.00;4.80;;;18.20;99.90;;;;;;5053480;28;20464;-77
2022/09/21 08:54:34;;;;;;;8.90;4.60;;;18.50;99.90;;;;;;5053678;28;20474;-76
2022/09/21 08:57:02;;;;;;;7.20;4.30;;;18.70;99.90;;;;;;5053179;28;20878;-76
2022/09/21 08:59:29;;;;;;;6.57;4.80;;;18.90;99.90;;;;;;5053762;28;20428;-77
2022/09/21 09:02:02;;;;;;;5.87;3.97;;;19.10;99.90;;;;;;5053269;28;20449;-77
2022/09/21 09:04:41;;;;;;;6.13;4.47;;;19.00;99.90;;;;;;5053130;28;20440;-76
2022/09/21 09:07:21;;;;;;;10.80;5.20;;;19.20;99.90;;;;;;5053225;28;20452;-76
2022/09/21 09:10:07;;;;;;;5.70;5.10;;;19.20;99.90;;;;;;5053157;28;20555;-76
2022/09/21 09:12:56;;;;;;;15.20;5.07;;;19.00;99.90;;;;;;5053150;28;20423;-76
2022/09/21 09:15:46;;;;;;;9.27;5.07;;;18.90;99.90;;;;;;5053057;28;20427;-76
2022/09/21 09:18:22;;;;;;;6.87;4.70;;;18.90;99.90;;;;;;5053122;28;20453;-76
2022/09/21 09:20:56;;;;;;;10.00;4.30;;;18.80;99.90;;;;;;5053001;28;20460;-76
2022/09/21 09:23:26;;;;;;;5.47;4.87;;;18.80;99.90;;;;;;5052618;28;20531;-76
2022/09/21 09:25:56;;;;;;;7.90;5.73;;;18.50;99.90;;;;;;5052738;28;20441;-76
2022/09/21 09:28:30;;;;;;;5.63;4.23;;;18.40;99.90;;;;;;5052747;28;20420;-76
2022/09/21 09:31:01;;;;;;;6.53;4.60;;;18.40;99.90;;;;;;5052914;28;20420;-76
2022/09/21 09:33:37;;;;;;;7.57;4.90;;;18.60;99.90;;;;;;5052625;28;20473;-76
2022/09/21 09:36:06;;;;;;;10.20;5.33;;;18.90;99.90;;;;;;5052608;28;20430;-76
2022/09/21 09:38:36;;;;;;;11.47;4.30;;;19.10;99.90;;;;;;5052856;28;20428;-79
2022/09/21 09:41:24;;;;;;;5.80;3.80;;;18.80;99.90;;;;;;5052724;28;20420;-79
2022/09/21 09:44:04;;;;;;;10.00;3.87;;;18.50;99.90;;;;;;5052428;28;20473;-79
2022/09/21 09:46:34;;;;;;;6.50;3.50;;;18.60;99.90;;;;;;5051936;28;20447;-79
2022/09/21 09:49:15;;;;;;;8.57;4.80;;;18.80;99.90;;;;;;5052551;28;20865;-79
2022/09/21 09:51:42;;;;;;;5.90;4.30;;;19.00;99.90;;;;;;5052381;28;20428;-79
2022/09/21 09:54:16;;;;;;;8.20;3.30;;;19.10;99.90;;;;;;5052291;28;20830;-79
2022/09/21 09:56:43;;;;;;;4.13;3.83;;;19.40;99.90;;;;;;5051946;28;20541;-79
2022/09/21 09:59:18;;;;;;;5.03;3.70;;;19.50;99.90;;;;;;5052462;28;20416;-79
2022/09/21 10:01:46;;;;;;;5.10;3.10;;;19.70;99.90;;;;;;5052274;28;20424;-79
2022/09/21 10:04:14;;;;;;;6.07;3.90;;;20.00;99.90;;;;;;5052209;28;20439;-79
2022/09/21 10:06:41;;;;;;;3.33;3.03;;;20.10;99.90;;;;;;5051954;28;20424;-79
2022/09/21 10:09:20;;;;;;;6.80;3.30;;;20.30;99.90;;;;;;5051959;28;20481;-79
2022/09/21 10:11:47;;;;;;;4.57;3.10;;;20.30;99.90;;;;;;5052279;28;20449;-79
2022/09/21 10:14:20;;;;;;;3.83;2.37;;;20.50;99.90;;;;;;5052130;28;20540;-79
2022/09/21 10:16:50;;;;;;;5.83;3.00;;;20.50;99.90;;;;;;5051932;28;20432;-79
2022/09/21 10:19:21;;;;;;;4.23;2.87;;;20.60;99.90;;;;;;5051987;28;20519;-79
2022/09/21 10:21:49;;;;;;;3.20;3.00;;;20.60;99.90;;;;;;5051762;28;20449;-79
2022/09/21 10:24:22;;;;;;;3.40;3.10;;;20.40;99.90;;;;;;5051995;28;20465;-79
2022/09/21 10:26:53;;;;;;;8.47;3.60;;;20.60;99.90;;;;;;5051645;28;20453;-79
2022/09/21 10:29:30;;;;;;;4.40;4.00;;;20.60;99.90;;;;;;5051919;28;20576;-79
2022/09/21 10:31:59;;;;;;;7.60;3.23;;;20.70;99.90;;;;;;5051722;28;20487;-79
2022/09/21 10:34:27;;;;;;;5.97;3.43;;;20.70;99.90;;;;;;5051765;28;20474;-79
2022/09/21 10:36:55;;;;;;;8.00;3.67;;;20.60;99.90;;;;;;5051667;28;20481;-79
2022/09/21 10:39:26;;;;;;;4.80;3.23;;;20.00;99.90;;;;;;5051773;28;20449;-79
2022/09/21 10:41:59;;;;;;;6.53;3.60;;;19.70;99.90;;;;;;5051813;28;20527;-79
2022/09/21 10:44:34;;;;;;;9.00;3.47;;;19.60;99.90;;;;;;5051668;28;20488;-79
2022/09/21 10:47:04;;;;;;;13.00;3.70;;;19.80;99.90;;;;;;5051512;28;20442;-79
2022/09/21 10:49:31;;;;;;;5.30;3.03;;;20.00;99.90;;;;;;5051775;28;20455;-79
2022/09/21 10:51:59;;;;;;;3.80;3.37;;;20.20;99.90;;;;;;5051580;28;20949;-79
2022/09/21 10:54:30;;;;;;;3.80;3.37;;;20.70;99.90;;;;;;5051588;28;20444;-79
2022/09/21 10:57:01;;;;;;;4.40;3.10;;;21.00;99.90;;;;;;5051508;28;20449;-79
2022/09/21 10:59:31;;;;;;;3.70;3.30;;;21.20;99.90;;;;;;5052810;28;20445;-79
2022/09/21 11:01:59;;;;;;;11.20;3.13;;;21.40;99.90;;;;;;5055823;28;20460;-79
2022/09/21 11:04:41;;;;;;;6.30;2.70;;;21.40;99.90;;;;;;5055433;28;20523;-79
2022/09/21 11:07:15;;;;;;;9.43;2.80;;;21.40;99.90;;;;;;5055269;28;20453;-79
2022/09/21 11:09:48;;;;;;;6.70;2.60;;;21.70;99.90;;;;;;5055212;28;20491;-79
2022/09/21 11:12:31;;;;;;;5.87;2.60;;;21.80;99.90;;;;;;5055715;28;20455;-79
2022/09/21 11:15:12;;;;;;;2.90;2.07;;;21.70;99.90;;;;;;5055527;28;20476;-79
2022/09/21 11:17:44;;;;;;;3.43;1.50;;;21.50;99.90;;;;;;5055326;28;20460;-79
2022/09/21 11:20:21;;;;;;;2.60;1.77;;;21.50;99.90;;;;;;5055207;28;20441;-79
2022/09/21 11:22:56;;;;;;;3.10;1.73;;;21.60;99.90;;;;;;5055393;28;20453;-79
2022/09/21 11:25:30;;;;;;;4.13;2.23;;;21.60;99.90;;;;;;5056941;28;20455;-79
2022/09/21 11:28:04;;;;;;;3.77;1.53;;;21.40;99.90;;;;;;5059606;28;20452;-79
2022/09/21 11:30:47;;;;;;;4.77;1.63;;;21.30;99.90;;;;;;5055801;28;20496;-77
2022/09/21 11:33:31;;;;;;;4.73;1.63;;;21.00;99.90;;;;;;5055033;28;20472;-78
2022/09/21 11:36:07;;;;;;;2.60;1.57;;;20.60;99.90;;;;;;5054850;28;20428;-78
2022/09/21 11:38:43;;;;;;;1.80;1.70;;;20.40;99.90;;;;;;5054823;28;20435;-78
2022/09/21 11:41:24;;;;;;;3.53;2.10;;;20.10;99.90;;;;;;5054988;28;20445;-78
2022/09/21 11:44:08;;;;;;;3.13;1.70;;;20.20;99.90;;;;;;5055159;28;20473;-79
2022/09/21 11:46:45;;;;;;;1.77;1.50;;;20.60;99.90;;;;;;5054388;28;20436;-79
2022/09/21 11:49:33;;;;;;;1.60;1.27;;;20.70;99.90;;;;;;5054292;28;20833;-79
2022/09/21 11:52:13;;;;;;;3.10;1.80;;;21.20;99.90;;;;;;5054858;28;20453;-79
2022/09/21 11:55:21;;;;;;;4.20;1.80;;;21.80;99.90;;;;;;5054685;28;20555;-79
2022/09/21 11:57:56;;;;;;;5.03;2.40;;;21.50;99.90;;;;;;4992760;28;20447;-79
2022/09/21 12:00:25;;;;;;;3.50;1.70;;;21.70;99.90;;;;;;5048260;28;20464;-79
2022/09/21 12:03:24;;;;;;;2.70;1.80;;;21.90;99.90;;;;;;5054406;28;20871;-79
2022/09/21 12:06:06;;;;;;;1.70;1.40;;;21.80;99.90;;;;;;5054215;28;20447;-79
2022/09/21 12:09:14;;;;;;;3.03;2.00;;;21.90;99.90;;;;;;5054644;28;20449;-79
2022/09/21 12:11:47;;;;;;;2.23;1.77;;;21.60;99.90;;;;;;5053977;28;20453;-79
2022/09/21 12:14:23;;;;;;;14.77;4.70;;;21.90;99.90;;;;;;5053951;28;20495;-79
2022/09/21 12:16:59;;;;;;;2.83;2.10;;;22.30;99.90;;;;;;5054146;28;20452;-79
2022/09/21 12:19:37;;;;;;;3.93;1.60;;;22.80;99.90;;;;;;5054350;28;20448;-79
2022/09/21 12:22:09;;;;;;;4.23;1.70;;;22.90;99.90;;;;;;5054274;28;20445;-79
2022/09/21 12:24:42;;;;;;;1.60;1.40;;;22.90;99.90;;;;;;5053833;28;20685;-79
2022/09/21 12:27:21;;;;;;;3.60;2.17;;;22.70;99.90;;;;;;5053897;28;20515;-79
2022/09/21 12:29:53;;;;;;;2.47;2.13;;;22.60;99.90;;;;;;5053921;28;20555;-79
2022/09/21 12:32:28;;;;;;;4.90;1.63;;;22.40;99.90;;;;;;5053971;28;20531;-79
2022/09/21 12:35:00;;;;;;;4.90;3.33;;;22.30;99.90;;;;;;5053727;28;20473;-79
2022/09/21 12:37:46;;;;;;;2.60;2.20;;;22.20;99.90;;;;;;5053673;28;20461;-79
2022/09/21 12:40:21;;;;;;;1.87;1.77;;;21.70;99.90;;;;;;5053712;28;20963;-79
2022/09/21 12:42:53;;;;;;;2.97;1.60;;;21.40;99.90;;;;;;5053537;28;20452;-79
2022/09/21 12:45:24;;;;;;;2.40;1.53;;;21.80;99.90;;;;;;5053081;28;20938;-80
2022/09/21 12:47:59;;;;;;;4.37;1.87;;;22.20;99.90;;;;;;5053554;28;20468;-79
2022/09/21 12:50:40;;;;;;;3.37;2.03;;;22.50;99.90;;;;;;5053571;28;20480;-79
2022/09/21 12:53:10;;;;;;;3.67;1.57;;;22.90;99.90;;;;;;5053361;28;21007;-79
2022/09/21 12:55:46;;;;;;;3.73;1.60;;;22.80;99.90;;;;;;5053203;28;20450;-79
2022/09/21 12:58:23;;;;;;;2.23;1.60;;;22.60;99.90;;;;;;5053418;28;20791;-79
2022/09/21 13:01:00;;;;;;;3.90;1.40;;;23.00;99.90;;;;;;5053476;28;20449;-79
2022/09/21 13:03:33;;;;;;;6.37;1.37;;;23.50;99.90;;;;;;5053338;28;20505;-79
2022/09/21 13:06:42;;;;;;;1.60;1.37;;;23.60;99.90;;;;;;5053032;28;20487;-79
2022/09/21 13:09:13;;;;;;;1.67;1.30;;;24.00;98.70;;;;;;5053348;28;20457;-79
2022/09/21 13:11:52;;;;;;;2.57;1.00;;;24.20;98.20;;;;;;5053466;28;20895;-79
2022/09/21 13:14:18;;;;;;;2.70;1.20;;;24.00;97.50;;;;;;5052961;28;20469;-79